Pagrindinis puslapis
METAR-TAF:

METAR-TAF

Oro uostai :

Såtenäs, Švedija

platuma: 58-26N, ilguma: 012-42E, Aukštis: 54 m

Dabartinis oras

Ataskaita buvo paskelbta 31 minutes, ne 14:20 UTC
Vėjas 9 kt iš Vakarų
Temperatūra 16°C
Drėgmė 55%
Slėgis 1010 hPa
Matomumas 10 km arba daugiau

METAR: ESIB 251420Z AUTO 27009KT 9999 NCD 16/07 Q1010

Laikas: 16:51 (14:51 UTC)

Prognozė

Ataskaita buvo paskelbta 36 minutes, ne 14:15 UTC
Prognozė galioja nuo 24 metu 14 UTC su 24 metu 15 UTC
Vėjas 12 kt iš Vakarų/Pietvakarių su gūsio iki 22 kt
Matomumas 10 km arba daugiau
Su prošvaistėmis ne aukštis 1500 ft
lietus
Laikinai
nuo 24 metu 14 UTC su 24 metu 15 UTC
Matomumas: 3000 m
Su prošvaistėmis ne aukštis 400 ft
dulksna

TAF: ESIB 241415Z 2414/2415 24012G22KT 9999 -RA BKN015 TEMPO 2414/2415 3000 DZ BKN004 RMK MIL

Orai ataskaitas ir orų prognozės (METAR, TAF).

turimą stotys yra geltonos ir raudonos taškus žemėlapyje.

Perkelti pele per norėdami pamatyti stoties vardą.

Tada spustelėkite, norėdami matyti oro stebėjimo ir prognozės.

Norėdami pakeisti žemėlapį: spustelėkite ant žalios mygtukų su juodo kryžiaus žemyn,; žalią mygtuką su brūkšneliu, jei norite nutolinti; arba žalių rodyklių gretimoms žemėlapius.


METAR-TAF: